createdAt,value
2022-12-14T00:01:20.674Z,97038.41
2022-12-14T00:03:50.259Z,97033.59
2022-12-14T00:06:26.679Z,97036.31
2022-12-14T00:08:53.937Z,97022.63
2022-12-14T00:11:21.478Z,97012.56
2022-12-14T00:13:50.908Z,97011.63
2022-12-14T00:16:18.087Z,97003.25
2022-12-14T00:18:44.996Z,96989.34
2022-12-14T00:21:12.502Z,97001.59
2022-12-14T00:23:39.492Z,96993.22
2022-12-14T00:26:13.589Z,97002.19
2022-12-14T00:28:40.374Z,96998.75
2022-12-14T00:31:07.194Z,96993.69
2022-12-14T00:33:33.829Z,96989.41
2022-12-14T00:36:00.380Z,96969.84
2022-12-14T00:38:27.495Z,96960.75
2022-12-14T00:40:55.169Z,96968.44
2022-12-14T00:43:22.399Z,96964.19
2022-12-14T00:45:48.998Z,96966.06
2022-12-14T00:48:15.694Z,96954.84
2022-12-14T00:50:42.257Z,96953.78
2022-12-14T00:53:15.261Z,96958.38
2022-12-14T00:55:42.766Z,96969.84
2022-12-14T00:58:11.054Z,96975.69
2022-12-14T01:00:37.952Z,96978.19
2022-12-14T01:03:04.784Z,96970.75
2022-12-14T01:05:31.374Z,96962.75
2022-12-14T01:07:58.035Z,96963.78
2022-12-14T01:10:24.621Z,96950.91
2022-12-14T01:12:51.148Z,96942.91
2022-12-14T01:15:17.699Z,96949.88
2022-12-14T01:17:44.235Z,96968.75
2022-12-14T01:20:11.069Z,96972.19
2022-12-14T01:22:37.782Z,96973.03
2022-12-14T01:25:04.804Z,96965.69
2022-12-14T01:27:31.525Z,96973.50
2022-12-14T01:29:58.029Z,96964.66
2022-12-14T01:32:24.593Z,96964.03
2022-12-14T01:34:51.337Z,96968.44
2022-12-14T01:37:18.038Z,96965.25
2022-12-14T01:39:44.971Z,96963.69
2022-12-14T01:42:11.961Z,96961.06
2022-12-14T01:44:38.528Z,96967.72
2022-12-14T01:47:17.474Z,96966.19
2022-12-14T01:49:44.054Z,96975.22
2022-12-14T01:52:15.703Z,96964.63
2022-12-14T01:54:44.340Z,96959.44
2022-12-14T01:57:15.605Z,96952.50
2022-12-14T01:59:42.255Z,96939.50
2022-12-14T02:02:08.859Z,96934.66
2022-12-14T02:04:35.696Z,96924.94
2022-12-14T02:07:02.266Z,96919.34
2022-12-14T02:09:30.379Z,96919.84
2022-12-14T02:11:58.805Z,96930.41
2022-12-14T02:14:25.365Z,96926.44
2022-12-14T02:16:52.551Z,96924.13
2022-12-14T02:19:19.107Z,96922.88
2022-12-14T02:21:54.511Z,96922.28
2022-12-14T02:24:21.059Z,96918.59
2022-12-14T02:26:50.743Z,96923.06
2022-12-14T02:29:35.752Z,96916.63
2022-12-14T02:32:10.584Z,96906.25
2022-12-14T02:34:50.639Z,96910.13
2022-12-14T02:37:25.742Z,96899.94
2022-12-14T02:40:13.425Z,96897.38
2022-12-14T02:42:50.954Z,96887.19
2022-12-14T02:45:20.393Z,96898.47
2022-12-14T02:47:51.227Z,96905.50
2022-12-14T02:50:25.727Z,96901.47
2022-12-14T02:52:52.200Z,96906.97
2022-12-14T02:55:30.742Z,96896.75
2022-12-14T02:57:57.280Z,96890.72
2022-12-14T03:00:23.822Z,96886.50
2022-12-14T03:02:50.524Z,96885.69
2022-12-14T03:05:17.189Z,96887.03
2022-12-14T03:07:53.270Z,96886.81
2022-12-14T03:10:21.694Z,96870.63
2022-12-14T03:12:49.765Z,96875.25
2022-12-14T03:15:16.400Z,96873.22
2022-12-14T03:17:42.927Z,96870.63
2022-12-14T03:20:20.707Z,96881.75
2022-12-14T03:22:55.861Z,96876.31
2022-12-14T03:25:24.651Z,96862.44
2022-12-14T03:27:52.212Z,96866.19
2022-12-14T03:30:43.790Z,96868.31
2022-12-14T03:33:06.842Z,96860.16
2022-12-14T03:35:35.143Z,96856.75
2022-12-14T03:38:07.859Z,96845.56
2022-12-14T03:40:35.179Z,96848.19
2022-12-14T03:43:07.759Z,96851.16
2022-12-14T03:45:42.613Z,96850.78
2022-12-14T03:48:27.323Z,96845.66
2022-12-14T03:50:58.846Z,96836.13
2022-12-14T03:53:28.340Z,96840.19
2022-12-14T03:55:58.223Z,96831.28
2022-12-14T03:58:29.157Z,96820.50
2022-12-14T04:01:14.538Z,96808.53
2022-12-14T04:03:41.147Z,96816.41
2022-12-14T04:06:09.219Z,96813.66
2022-12-14T04:08:39.288Z,96810.81
2022-12-14T04:11:24.267Z,96803.31
2022-12-14T04:14:13.766Z,96810.88
2022-12-14T04:16:59.882Z,96807.75
2022-12-14T04:19:34.530Z,96800.00
2022-12-14T04:22:05.294Z,96787.50
2022-12-14T04:24:53.252Z,96785.28
2022-12-14T04:27:21.757Z,96764.84
2022-12-14T04:29:57.323Z,96774.72
2022-12-14T04:32:37.324Z,96777.88
2022-12-14T04:35:10.146Z,96767.59
2022-12-14T04:37:37.329Z,96771.97
2022-12-14T04:40:11.441Z,96767.28
2022-12-14T04:42:49.141Z,96767.72
2022-12-14T04:45:17.475Z,96758.66
2022-12-14T04:47:45.967Z,96769.56
2022-12-14T04:50:18.087Z,96771.41
2022-12-14T04:52:45.765Z,96771.25
2022-12-14T04:55:15.132Z,96770.19
2022-12-14T04:57:49.006Z,96769.63
2022-12-14T05:00:15.709Z,96767.28
2022-12-14T05:02:42.351Z,96763.00
2022-12-14T05:05:14.743Z,96766.97
2022-12-14T05:07:41.238Z,96766.78
2022-12-14T05:10:11.756Z,96746.00
2022-12-14T05:12:43.718Z,96747.63
2022-12-14T05:15:23.603Z,96743.31
2022-12-14T05:17:50.468Z,96750.84
2022-12-14T05:20:21.202Z,96751.56
2022-12-14T05:22:47.746Z,96747.00
2022-12-14T05:25:14.341Z,96749.34
2022-12-14T05:27:41.031Z,96735.84
2022-12-14T05:30:07.966Z,96726.47
2022-12-14T05:32:34.503Z,96725.31
2022-12-14T05:35:01.736Z,96733.56
2022-12-14T05:37:28.260Z,96734.06
2022-12-14T05:39:54.897Z,96720.19
2022-12-14T05:42:21.595Z,96717.91
2022-12-14T05:44:48.232Z,96718.19
2022-12-14T05:47:14.795Z,96720.72
2022-12-14T05:49:41.437Z,96726.38
2022-12-14T05:52:11.451Z,96727.59
2022-12-14T05:54:38.024Z,96719.75
2022-12-14T05:57:05.884Z,96711.41
2022-12-14T05:59:32.691Z,96702.97
2022-12-14T06:01:59.452Z,96696.16
2022-12-14T06:04:26.151Z,96690.41
2022-12-14T06:06:52.702Z,96683.38
2022-12-14T06:09:19.241Z,96684.25
2022-12-14T06:11:45.902Z,96677.28
2022-12-14T06:14:12.663Z,96691.13
2022-12-14T06:16:42.965Z,96703.03
2022-12-14T06:19:09.564Z,96700.88
2022-12-14T06:21:36.766Z,96694.03
2022-12-14T06:24:03.483Z,96697.75
2022-12-14T06:26:31.028Z,96687.84
2022-12-14T06:28:57.754Z,96688.69
2022-12-14T06:31:25.296Z,96698.75
2022-12-14T06:33:53.321Z,96694.38
2022-12-14T06:36:22.840Z,96682.19
2022-12-14T06:38:50.124Z,96686.03
2022-12-14T06:41:16.696Z,96677.31
2022-12-14T06:43:43.338Z,96678.66
2022-12-14T06:46:15.060Z,96683.59
2022-12-14T06:48:42.320Z,96674.94
2022-12-14T06:51:09.068Z,96672.66
2022-12-14T06:53:35.729Z,96677.34
2022-12-14T06:56:08.977Z,96659.94
2022-12-14T06:58:35.678Z,96655.06
2022-12-14T07:01:03.207Z,96654.09
2022-12-14T07:03:30.147Z,96648.13
2022-12-14T07:05:57.672Z,96647.81
2022-12-14T07:08:24.359Z,96648.66
2022-12-14T07:10:50.918Z,96636.94
2022-12-14T07:13:17.431Z,96636.16
2022-12-14T07:15:44.750Z,96632.31
2022-12-14T07:18:11.356Z,96630.16
2022-12-14T07:20:37.993Z,96610.78
2022-12-14T07:23:04.498Z,96625.88
2022-12-14T07:25:31.018Z,96618.34
2022-12-14T07:27:57.549Z,96616.31
2022-12-14T07:30:24.085Z,96600.94
2022-12-14T07:32:50.618Z,96602.91
2022-12-14T07:35:17.436Z,96609.31
2022-12-14T07:37:44.016Z,96622.91
2022-12-14T07:40:15.937Z,96629.56
2022-12-14T07:42:42.486Z,96624.81
2022-12-14T07:45:09.850Z,96618.19
2022-12-14T07:47:36.410Z,96610.72
2022-12-14T07:50:03.025Z,96615.22
2022-12-14T07:52:37.319Z,96603.16
2022-12-14T07:55:04.387Z,96611.75
2022-12-14T07:57:31.855Z,96597.84
2022-12-14T07:59:58.369Z,96591.81
2022-12-14T08:02:24.989Z,96591.72
2022-12-14T08:04:51.621Z,96577.94
2022-12-14T08:07:18.973Z,96573.44
2022-12-14T08:09:45.467Z,96579.72
2022-12-14T08:12:12.061Z,96577.25
2022-12-14T08:14:38.616Z,96579.06
2022-12-14T08:17:06.766Z,96582.03
2022-12-14T08:19:33.292Z,96584.78
2022-12-14T08:21:59.854Z,96586.16
2022-12-14T08:24:26.425Z,96588.38
2022-12-14T08:26:53.272Z,96587.94
2022-12-14T08:29:19.823Z,96583.44
2022-12-14T08:31:46.484Z,96575.22
2022-12-14T08:34:13.103Z,96588.63
2022-12-14T08:36:39.618Z,96580.97
2022-12-14T08:39:07.131Z,96581.34
2022-12-14T08:41:33.651Z,96580.81
2022-12-14T08:44:00.828Z,96578.78
2022-12-14T08:46:27.983Z,96581.78
2022-12-14T08:48:55.247Z,96581.78
2022-12-14T08:51:22.325Z,96599.44
2022-12-14T08:53:48.874Z,96599.16
2022-12-14T08:56:17.247Z,96592.47
2022-12-14T08:58:43.827Z,96588.09
2022-12-14T09:01:14.667Z,96592.31
2022-12-14T09:03:41.877Z,96588.34
2022-12-14T09:06:09.073Z,96590.94
2022-12-14T09:08:35.748Z,96591.50
2022-12-14T09:11:02.638Z,96590.25
2022-12-14T09:13:29.811Z,96590.66
2022-12-14T09:15:58.049Z,96595.19
2022-12-14T09:18:24.834Z,96585.19
2022-12-14T09:20:54.407Z,96596.53
2022-12-14T09:23:21.575Z,96584.19
2022-12-14T09:25:48.186Z,96581.75
2022-12-14T09:28:14.733Z,96568.22
2022-12-14T09:30:41.259Z,96567.25
2022-12-14T09:33:07.795Z,96557.81
2022-12-14T09:35:34.459Z,96558.44
2022-12-14T09:38:00.991Z,96549.13
2022-12-14T09:40:27.689Z,96554.63
2022-12-14T09:42:56.195Z,96550.91
2022-12-14T09:45:26.810Z,96556.13
2022-12-14T09:47:58.123Z,96544.19
2022-12-14T09:50:25.376Z,96546.81
2022-12-14T09:52:52.505Z,96549.09
2022-12-14T09:55:38.288Z,96556.00
2022-12-14T09:58:05.553Z,96564.47
2022-12-14T10:00:37.232Z,96557.22
2022-12-14T10:03:10.206Z,96560.66
2022-12-14T10:05:43.068Z,96559.59
2022-12-14T10:08:21.402Z,96557.38
2022-12-14T10:10:50.977Z,96552.59
2022-12-14T10:13:22.677Z,96563.41
2022-12-14T10:16:12.494Z,96562.44
2022-12-14T10:18:59.094Z,96560.78
2022-12-14T10:21:28.278Z,96557.66
2022-12-14T10:23:58.932Z,96555.59
2022-12-14T10:26:51.894Z,96541.63
2022-12-14T10:29:20.752Z,96541.78
2022-12-14T10:32:07.972Z,96533.50
2022-12-14T10:34:34.977Z,96529.28
2022-12-14T10:37:01.428Z,96522.56
2022-12-14T10:39:49.543Z,96522.44
2022-12-14T10:42:35.229Z,96531.72
2022-12-14T10:48:27.800Z,96513.75
2022-12-14T10:51:08.482Z,96516.16
2022-12-14T10:53:41.071Z,96508.50
2022-12-14T10:56:11.002Z,96500.22
2022-12-14T10:58:37.530Z,96504.22
2022-12-14T11:01:04.122Z,96515.59
2022-12-14T11:03:30.834Z,96519.78
2022-12-14T11:06:02.942Z,96508.66
2022-12-14T11:08:41.756Z,96514.50
2022-12-14T11:11:19.137Z,96513.09
2022-12-14T11:14:09.545Z,96516.69
2022-12-14T11:16:37.675Z,96513.31
2022-12-14T11:19:05.391Z,96507.50
2022-12-14T11:21:36.301Z,96506.41
2022-12-14T11:24:03.269Z,96506.16
2022-12-14T11:26:37.536Z,96501.28
2022-12-14T11:29:05.909Z,96509.22
2022-12-14T11:31:33.960Z,96512.72
2022-12-14T11:34:00.913Z,96506.91
2022-12-14T11:36:28.746Z,96512.44
2022-12-14T11:38:59.077Z,96513.06
2022-12-14T11:41:26.378Z,96510.53
2022-12-14T11:44:06.503Z,96508.56
2022-12-14T11:46:44.769Z,96504.41
2022-12-14T11:49:22.626Z,96500.88
2022-12-14T11:52:04.433Z,96494.81
2022-12-14T11:54:31.565Z,96506.06
2022-12-14T11:57:02.083Z,96508.75
2022-12-14T11:59:30.387Z,96501.66
2022-12-14T12:01:56.937Z,96505.63
2022-12-14T12:04:23.701Z,96507.34
2022-12-14T12:06:50.164Z,96491.00
2022-12-14T12:09:27.668Z,96489.44
2022-12-14T12:11:54.129Z,96495.28
2022-12-14T12:14:29.688Z,96499.03
2022-12-14T12:16:56.188Z,96501.91
2022-12-14T12:19:24.681Z,96505.34
2022-12-14T12:21:51.186Z,96515.94
2022-12-14T12:24:34.485Z,96511.03
2022-12-14T12:27:02.665Z,96510.34
2022-12-14T12:29:36.989Z,96504.72
2022-12-14T12:32:22.454Z,96503.91
2022-12-14T12:35:11.083Z,96498.69
2022-12-14T12:37:43.093Z,96510.94
2022-12-14T12:40:20.128Z,96513.41
2022-12-14T12:42:48.729Z,96517.72
2022-12-14T12:45:16.857Z,96517.41
2022-12-14T12:48:09.724Z,96504.06
2022-12-14T12:50:37.033Z,96506.00
2022-12-14T12:53:10.376Z,96519.69
2022-12-14T12:55:41.214Z,96523.88
2022-12-14T12:58:10.114Z,96515.41
2022-12-14T13:00:36.865Z,96522.38
2022-12-14T13:03:06.399Z,96528.84
2022-12-14T13:05:49.000Z,96534.34
2022-12-14T13:08:29.335Z,96538.75
2022-12-14T13:13:44.662Z,96552.88
2022-12-14T13:16:43.724Z,96555.81
2022-12-14T13:19:48.670Z,96558.56
2022-12-14T13:22:07.935Z,96555.41
2022-12-14T13:24:36.314Z,96557.31
2022-12-14T13:27:04.581Z,96561.03
2022-12-14T13:29:33.948Z,96548.13
2022-12-14T13:32:19.254Z,96543.91
2022-12-14T13:34:52.759Z,96544.28
2022-12-14T13:37:22.233Z,96533.66
2022-12-14T13:40:07.470Z,96532.59
2022-12-14T13:42:52.763Z,96532.69
2022-12-14T13:45:22.445Z,96536.56
2022-12-14T13:47:51.557Z,96551.94
2022-12-14T13:50:40.864Z,96548.44
2022-12-14T13:53:14.946Z,96558.78
2022-12-14T13:55:48.669Z,96561.66
2022-12-14T13:58:37.103Z,96569.59
2022-12-14T14:01:07.473Z,96575.06
2022-12-14T14:03:34.106Z,96575.19
2022-12-14T14:06:01.345Z,96583.91
2022-12-14T14:08:36.253Z,96585.97
2022-12-14T14:11:37.034Z,96582.38
2022-12-14T14:14:23.410Z,96585.97
2022-12-14T14:16:50.900Z,96584.59
2022-12-14T14:19:22.049Z,96592.69
2022-12-14T14:22:22.800Z,96600.78
2022-12-14T14:24:55.631Z,96606.13
2022-12-14T14:27:25.961Z,96613.25
2022-12-14T14:29:52.491Z,96611.03
2022-12-14T14:32:24.968Z,96606.00
2022-12-14T14:34:51.616Z,96611.09
2022-12-14T14:37:21.211Z,96610.41
2022-12-14T14:40:07.613Z,96618.03
2022-12-14T14:42:54.207Z,96621.63
2022-12-14T14:45:37.735Z,96631.91
2022-12-14T14:48:11.783Z,96638.78
2022-12-14T14:50:38.758Z,96642.44
2022-12-14T14:53:12.820Z,96653.03
2022-12-14T14:55:55.782Z,96654.66
2022-12-14T14:58:22.727Z,96658.63
2022-12-14T15:01:07.811Z,96659.19
2022-12-14T15:03:37.253Z,96662.03
2022-12-14T15:06:03.999Z,96671.75
2022-12-14T15:08:33.791Z,96681.78
2022-12-14T15:11:02.070Z,96687.38
2022-12-14T15:13:29.999Z,96694.63
2022-12-14T15:15:56.997Z,96707.81
2022-12-14T15:18:24.612Z,96707.75
2022-12-14T15:21:00.759Z,96713.78
2022-12-14T15:23:30.025Z,96719.56
2022-12-14T15:25:57.961Z,96721.44
2022-12-14T15:28:24.509Z,96729.25
2022-12-14T15:30:50.994Z,96731.94
2022-12-14T15:33:20.889Z,96739.22
2022-12-14T15:35:49.525Z,96740.19
2022-12-14T15:38:23.469Z,96741.81
2022-12-14T15:41:13.309Z,96745.81
2022-12-14T15:43:42.941Z,96746.59
2022-12-14T15:46:17.501Z,96752.53
2022-12-14T15:48:44.007Z,96759.97
2022-12-14T15:51:11.819Z,96755.31
2022-12-14T15:53:51.345Z,96760.91
2022-12-14T15:56:18.197Z,96764.91
2022-12-14T15:58:44.949Z,96777.25
2022-12-14T16:01:13.766Z,96779.56
2022-12-14T16:03:41.867Z,96795.16
2022-12-14T16:06:11.528Z,96787.66
2022-12-14T16:08:38.707Z,96779.84
2022-12-14T16:11:07.167Z,96791.63
2022-12-14T16:13:34.858Z,96791.19
2022-12-14T16:16:04.169Z,96786.91
2022-12-14T16:18:30.688Z,96789.25
2022-12-14T16:20:58.323Z,96796.50
2022-12-14T16:23:30.180Z,96809.69
2022-12-14T16:25:58.720Z,96804.75
2022-12-14T16:28:29.521Z,96804.63
2022-12-14T16:31:01.889Z,96812.22
2022-12-14T16:33:29.593Z,96810.22
2022-12-14T16:36:06.946Z,96807.22
2022-12-14T16:38:35.777Z,96805.56
2022-12-14T16:41:02.772Z,96802.84
2022-12-14T16:43:31.400Z,96813.59
2022-12-14T16:46:04.403Z,96827.47
2022-12-14T16:48:31.590Z,96827.25
2022-12-14T16:51:18.623Z,96825.03
2022-12-14T16:53:52.402Z,96823.81
2022-12-14T16:56:22.523Z,96829.44
2022-12-14T16:58:52.956Z,96831.47
2022-12-14T17:01:19.626Z,96834.94
2022-12-14T17:03:51.110Z,96839.88
2022-12-14T17:06:22.081Z,96847.91
2022-12-14T17:08:48.577Z,96850.75
2022-12-14T17:11:15.086Z,96860.69
2022-12-14T17:13:41.597Z,96856.19
2022-12-14T17:16:08.187Z,96858.34
2022-12-14T17:18:36.868Z,96867.00
2022-12-14T17:21:03.593Z,96870.84
2022-12-14T17:23:31.005Z,96865.91
2022-12-14T17:26:00.323Z,96873.16
2022-12-14T17:28:31.684Z,96875.50
2022-12-14T17:30:58.855Z,96871.09
2022-12-14T17:33:28.964Z,96869.69
2022-12-14T17:36:03.406Z,96874.63
2022-12-14T17:38:33.813Z,96876.31
2022-12-14T17:41:00.380Z,96877.44
2022-12-14T17:43:30.169Z,96877.84
2022-12-14T17:46:00.984Z,96883.28
2022-12-14T17:48:28.850Z,96879.59
2022-12-14T17:50:55.600Z,96881.34
2022-12-14T17:53:25.201Z,96887.16
2022-12-14T17:55:51.718Z,96884.00
2022-12-14T17:58:18.176Z,96887.00
2022-12-14T18:01:03.356Z,96890.19
2022-12-14T18:03:31.823Z,96891.09
2022-12-14T18:05:59.206Z,96898.16
2022-12-14T18:08:26.722Z,96894.91
2022-12-14T18:11:20.130Z,96896.09
2022-12-14T18:13:49.853Z,96900.63
2022-12-14T18:16:20.520Z,96905.00
2022-12-14T18:18:49.713Z,96909.44
2022-12-14T18:21:24.170Z,96908.34
2022-12-14T18:23:53.601Z,96919.31
2022-12-14T18:26:21.241Z,96917.69
2022-12-14T18:28:48.557Z,96925.59
2022-12-14T18:31:29.380Z,96920.72
2022-12-14T18:33:55.920Z,96918.72
2022-12-14T18:36:22.639Z,96913.44
2022-12-14T18:38:49.710Z,96920.03
2022-12-14T18:41:19.966Z,96919.03
2022-12-14T18:43:46.840Z,96915.81
2022-12-14T18:46:13.388Z,96922.75
2022-12-14T18:48:43.274Z,96920.25
2022-12-14T18:51:13.796Z,96910.03
2022-12-14T18:53:42.306Z,96912.41
2022-12-14T18:56:11.727Z,96911.81
2022-12-14T18:58:41.789Z,96923.34
2022-12-14T19:01:11.496Z,96937.69
2022-12-14T19:03:38.165Z,96940.41
2022-12-14T19:09:09.579Z,96939.41
2022-12-14T19:11:38.853Z,96946.78
2022-12-14T19:14:05.508Z,96947.88
2022-12-14T19:16:32.059Z,96942.91
2022-12-14T19:18:59.693Z,96957.03
2022-12-14T19:21:31.149Z,96949.19
2022-12-14T19:23:59.489Z,96945.06
2022-12-14T19:26:28.193Z,96959.88
2022-12-14T19:28:54.674Z,96960.41
2022-12-14T19:31:21.319Z,96957.03
2022-12-14T19:33:47.842Z,96954.50
2022-12-14T19:36:14.353Z,96952.97
2022-12-14T19:38:40.953Z,96960.88
2022-12-14T19:41:08.171Z,96970.25
2022-12-14T19:43:35.282Z,96966.31
2022-12-14T19:46:06.082Z,96960.78
2022-12-14T19:48:32.656Z,96965.69
2022-12-14T19:51:02.531Z,96964.44
2022-12-14T19:53:31.372Z,96963.78
2022-12-14T19:55:58.205Z,96963.09
2022-12-14T19:58:25.455Z,96972.72
2022-12-14T20:00:51.995Z,96970.94
2022-12-14T20:03:18.768Z,96973.31
2022-12-14T20:05:51.517Z,96974.84
2022-12-14T20:08:18.068Z,96976.75
2022-12-14T20:10:44.582Z,96968.53
2022-12-14T20:13:11.048Z,96977.56
2022-12-14T20:15:37.857Z,96980.47
2022-12-14T20:18:04.816Z,96980.53
2022-12-14T20:20:31.818Z,96983.06
2022-12-14T20:22:58.297Z,96989.59
2022-12-14T20:25:25.000Z,96994.25
2022-12-14T20:27:52.228Z,96993.28
2022-12-14T20:30:18.806Z,97004.47
2022-12-14T20:32:45.274Z,97006.00
2022-12-14T20:35:18.467Z,97007.16
2022-12-14T20:37:45.336Z,97016.28
2022-12-14T20:40:11.950Z,97014.28
2022-12-14T20:42:38.478Z,97011.13
2022-12-14T20:45:07.460Z,97008.00
2022-12-14T20:47:34.133Z,97011.75
2022-12-14T20:50:00.620Z,97015.25
2022-12-14T20:52:27.088Z,97013.66
2022-12-14T20:54:53.755Z,97015.78
2022-12-14T20:57:20.254Z,97008.34
2022-12-14T20:59:46.772Z,97003.97
2022-12-14T21:02:15.533Z,97005.84
2022-12-14T21:04:42.141Z,97008.91
2022-12-14T21:07:08.634Z,97005.66
2022-12-14T21:09:35.145Z,97010.66
2022-12-14T21:12:23.082Z,97009.47
2022-12-14T21:14:53.270Z,97009.16
2022-12-14T21:17:20.650Z,97010.19
2022-12-14T21:19:47.337Z,97012.44
2022-12-14T21:22:14.794Z,97013.16
2022-12-14T21:27:28.362Z,97014.94
2022-12-14T21:29:54.885Z,97019.75
2022-12-14T21:32:21.626Z,97015.13
2022-12-14T21:34:48.388Z,97018.16
2022-12-14T21:37:15.361Z,97023.31
2022-12-14T21:39:41.906Z,97022.94
2022-12-14T21:42:13.346Z,97038.28
2022-12-14T21:44:40.824Z,97025.41
2022-12-14T21:47:08.539Z,97033.19
2022-12-14T21:49:38.877Z,97034.00
2022-12-14T21:52:07.500Z,97031.06
2022-12-14T21:54:34.357Z,97038.09
2022-12-14T21:57:19.640Z,97031.47
2022-12-14T21:59:46.165Z,97030.84
2022-12-14T22:02:17.565Z,97030.84
2022-12-14T22:04:47.321Z,97036.97
2022-12-14T22:07:17.391Z,97032.38
2022-12-14T22:09:44.220Z,97034.53
2022-12-14T22:12:16.958Z,97044.72
2022-12-14T22:14:43.456Z,97040.84
2022-12-14T22:17:10.722Z,97049.53
2022-12-14T22:19:37.229Z,97052.00
2022-12-14T22:22:03.732Z,97052.06
2022-12-14T22:24:30.369Z,97046.16
2022-12-14T22:26:57.022Z,97040.69
2022-12-14T22:29:24.164Z,97050.66
2022-12-14T22:31:51.478Z,97045.69
2022-12-14T22:34:19.486Z,97046.31
2022-12-14T22:36:46.468Z,97037.34
2022-12-14T22:39:13.199Z,97039.38
2022-12-14T22:41:39.954Z,97032.41
2022-12-14T22:44:06.439Z,97032.97
2022-12-14T22:46:33.328Z,97030.97
2022-12-14T22:49:00.237Z,97032.50
2022-12-14T22:51:29.151Z,97033.97
2022-12-14T22:53:56.000Z,97037.28
2022-12-14T22:56:36.706Z,97041.16
2022-12-14T22:59:04.540Z,97043.38
2022-12-14T23:01:31.197Z,97040.41
2022-12-14T23:03:57.874Z,97042.50
2022-12-14T23:06:24.526Z,97049.38
2022-12-14T23:09:09.731Z,97057.53
2022-12-14T23:11:55.013Z,97059.16
2022-12-14T23:14:40.304Z,97061.16
2022-12-14T23:17:25.383Z,97070.44
2022-12-14T23:20:10.688Z,97068.59
2022-12-14T23:22:55.816Z,97067.94
2022-12-14T23:25:41.232Z,97070.78
2022-12-14T23:28:26.618Z,97070.19
2022-12-14T23:31:11.953Z,97073.84
2022-12-14T23:33:57.392Z,97061.94
2022-12-14T23:36:42.608Z,97065.53
2022-12-14T23:39:27.818Z,97061.66
2022-12-14T23:42:13.091Z,97053.66
2022-12-14T23:44:58.401Z,97058.91
2022-12-14T23:47:43.590Z,97057.44
2022-12-14T23:50:28.591Z,97053.09
2022-12-14T23:53:13.677Z,97051.53
2022-12-14T23:55:58.621Z,97067.03
2022-12-14T23:58:43.815Z,97063.06
